Time;durP1;ratioP1;P1;durP2;ratioP2;P2;SDS_P1;SDS_P2;PMS_P1;PMS_P2;Temp;Humidity;BMP_temperature;BMP_pressure;BME280_temperature;BME280_humidity;BME280_pressure;Samples;Min_cycle;Max_cycle;Signal;HPM_P1;HPM_P2
2022/03/26 00:02:13;;;;;;;27.00;12.65;;;3.30;99.90;;;;;;5096122;28;20447;-63
2022/03/26 00:04:38;;;;;;;24.40;12.68;;;3.30;99.90;;;;;;5096094;28;20055;-64
2022/03/26 00:07:05;;;;;;;28.23;13.18;;;3.40;99.90;;;;;;5094932;28;20074;-63
2022/03/26 00:09:30;;;;;;;25.88;12.95;;;3.30;99.90;;;;;;5095977;28;20070;-63
2022/03/26 00:11:56;;;;;;;26.75;13.73;;;3.20;99.90;;;;;;5095932;28;20028;-63
2022/03/26 00:14:22;;;;;;;28.00;13.80;;;3.20;99.90;;;;;;5095881;28;20117;-63
2022/03/26 00:16:47;;;;;;;25.80;12.95;;;3.20;99.90;;;;;;5096121;28;20028;-63
2022/03/26 00:19:14;;;;;;;25.17;11.88;;;3.20;99.90;;;;;;5094365;28;20032;-63
2022/03/26 00:21:41;;;;;;;28.15;12.77;;;3.10;99.90;;;;;;5094453;28;20028;-63
2022/03/26 00:24:06;;;;;;;32.28;13.23;;;3.10;99.90;;;;;;5094433;28;20028;-63
2022/03/26 00:26:32;;;;;;;23.95;12.10;;;3.10;99.90;;;;;;5095392;28;20035;-63
2022/03/26 00:28:58;;;;;;;26.25;12.50;;;3.10;99.90;;;;;;5095386;28;20024;-63
2022/03/26 00:31:24;;;;;;;25.67;11.98;;;3.00;99.90;;;;;;5095638;28;20046;-63
2022/03/26 00:33:49;;;;;;;25.67;12.63;;;2.90;99.90;;;;;;5095449;28;20032;-63
2022/03/26 00:36:15;;;;;;;26.27;12.27;;;2.90;99.90;;;;;;5094144;28;20028;-63
2022/03/26 00:38:41;;;;;;;26.42;12.85;;;2.90;99.90;;;;;;5094151;28;20030;-63
2022/03/26 00:41:07;;;;;;;27.15;12.18;;;2.90;99.90;;;;;;5094104;28;20409;-63
2022/03/26 00:43:33;;;;;;;25.70;12.40;;;2.90;99.90;;;;;;5095361;28;20028;-63
2022/03/26 00:45:58;;;;;;;28.08;12.45;;;2.80;99.90;;;;;;5110941;28;20428;-61
2022/03/26 00:48:24;;;;;;;24.80;12.65;;;2.80;99.90;;;;;;5095069;28;20108;-63
2022/03/26 00:50:49;;;;;;;24.50;12.65;;;2.70;99.90;;;;;;5095198;28;20028;-63
2022/03/26 00:53:15;;;;;;;26.42;11.98;;;2.70;99.90;;;;;;5093836;28;20498;-63
2022/03/26 00:55:41;;;;;;;26.95;11.98;;;2.60;99.90;;;;;;5094809;28;20032;-63
2022/03/26 00:58:06;;;;;;;26.40;12.32;;;2.60;99.90;;;;;;5093808;28;20019;-63
2022/03/26 01:00:32;;;;;;;24.02;13.23;;;2.60;99.90;;;;;;5093725;28;20059;-63
2022/03/26 01:02:58;;;;;;;28.40;12.32;;;2.50;99.90;;;;;;5093699;28;20097;-63
2022/03/26 01:05:24;;;;;;;30.70;12.55;;;2.50;99.90;;;;;;5093691;28;20507;-63
2022/03/26 01:07:52;;;;;;;29.13;11.77;;;2.40;99.90;;;;;;5094819;28;20032;-63
2022/03/26 01:10:17;;;;;;;35.95;12.88;;;2.50;99.90;;;;;;5093565;28;20070;-63
2022/03/26 01:12:43;;;;;;;26.15;12.35;;;2.40;99.90;;;;;;5094328;28;20044;-63
2022/03/26 01:15:09;;;;;;;26.08;12.30;;;2.40;99.90;;;;;;5093124;28;20032;-63
2022/03/26 01:17:36;;;;;;;24.60;12.32;;;2.40;99.90;;;;;;5093673;28;20101;-63
2022/03/26 01:20:02;;;;;;;24.30;12.05;;;2.30;99.90;;;;;;5094766;28;20418;-63
2022/03/26 01:22:28;;;;;;;29.08;12.88;;;2.30;99.90;;;;;;5095142;28;20032;-63
2022/03/26 01:24:54;;;;;;;26.13;12.30;;;2.20;99.90;;;;;;5094824;28;20137;-64
2022/03/26 01:27:19;;;;;;;24.27;12.23;;;2.20;99.90;;;;;;5093553;28;20032;-63
2022/03/26 01:29:45;;;;;;;22.48;11.98;;;2.20;99.90;;;;;;5109667;28;20073;-63
2022/03/26 01:32:11;;;;;;;23.52;12.43;;;2.20;99.90;;;;;;5094483;28;20060;-63
2022/03/26 01:34:37;;;;;;;25.13;12.63;;;2.10;99.90;;;;;;5094052;28;20575;-63
2022/03/26 01:37:03;;;;;;;30.08;13.52;;;2.10;99.90;;;;;;5094393;28;20107;-63
2022/03/26 01:39:30;;;;;;;27.08;13.02;;;2.10;99.90;;;;;;5094656;28;20134;-63
2022/03/26 01:42:04;;;;;;;27.15;12.77;;;2.10;99.90;;;;;;5094282;28;20024;-63
2022/03/26 01:44:30;;;;;;;25.92;12.15;;;2.10;99.90;;;;;;5094517;28;20035;-63
2022/03/26 01:46:56;;;;;;;31.48;13.07;;;2.10;99.90;;;;;;5094220;28;20028;-63
2022/03/26 01:49:22;;;;;;;26.77;12.75;;;2.10;99.90;;;;;;5094346;28;20024;-63
2022/03/26 01:51:48;;;;;;;26.10;12.30;;;2.10;99.90;;;;;;5092919;28;20479;-63
2022/03/26 01:54:16;;;;;;;30.25;12.30;;;2.00;99.90;;;;;;5094012;28;20059;-63
2022/03/26 01:56:43;;;;;;;26.98;12.65;;;2.10;99.90;;;;;;5092775;28;20028;-63
2022/03/26 01:59:10;;;;;;;28.08;12.02;;;2.00;99.90;;;;;;5093061;28;20020;-63
2022/03/26 02:01:37;;;;;;;24.80;13.18;;;2.00;99.90;;;;;;5092761;28;20024;-63
2022/03/26 02:04:06;;;;;;;25.45;13.02;;;2.00;99.90;;;;;;5094044;28;20032;-63
2022/03/26 02:06:37;;;;;;;29.75;13.38;;;2.00;99.90;;;;;;5093928;28;20016;-63
2022/03/26 02:09:05;;;;;;;27.42;12.70;;;2.00;99.90;;;;;;5092695;28;20119;-63
2022/03/26 02:11:37;;;;;;;30.02;13.07;;;1.90;99.90;;;;;;5094095;28;20111;-63
2022/03/26 02:14:03;;;;;;;29.83;12.73;;;1.90;99.90;;;;;;5092121;28;20048;-63
2022/03/26 02:16:31;;;;;;;26.67;12.93;;;2.10;99.90;;;;;;5092716;28;20024;-63
2022/03/26 02:18:57;;;;;;;31.50;13.20;;;1.90;99.90;;;;;;5093888;28;20024;-63
2022/03/26 02:21:24;;;;;;;29.40;14.32;;;2.00;99.90;;;;;;5093839;28;20173;-63
2022/03/26 02:23:50;;;;;;;33.85;13.55;;;1.90;99.90;;;;;;5094102;28;20032;-63
2022/03/26 02:26:20;;;;;;;32.15;13.95;;;1.80;99.90;;;;;;5093887;28;20464;-63
2022/03/26 02:28:46;;;;;;;27.52;11.90;;;1.80;99.90;;;;;;5093729;28;20039;-63
2022/03/26 02:31:16;;;;;;;28.80;12.80;;;1.70;99.90;;;;;;5093786;28;20024;-63
2022/03/26 02:33:42;;;;;;;27.52;13.20;;;1.70;99.90;;;;;;5092981;28;20032;-63
2022/03/26 02:36:09;;;;;;;27.30;13.23;;;1.70;99.90;;;;;;5093792;28;20024;-63
2022/03/26 02:38:35;;;;;;;26.58;13.18;;;1.70;99.90;;;;;;5093695;28;20020;-63
2022/03/26 02:41:01;;;;;;;27.17;12.90;;;1.70;99.90;;;;;;5093645;28;20046;-63
2022/03/26 02:43:27;;;;;;;27.88;12.85;;;1.70;99.90;;;;;;5113115;28;20506;-63
2022/03/26 02:45:53;;;;;;;28.70;13.05;;;1.60;99.90;;;;;;5096848;28;20024;-63
2022/03/26 02:48:19;;;;;;;27.40;12.30;;;1.60;99.90;;;;;;5096713;28;20356;-63
2022/03/26 02:50:45;;;;;;;31.02;13.23;;;1.60;99.90;;;;;;5097699;28;20020;-63
2022/03/26 02:53:11;;;;;;;32.47;13.98;;;1.50;99.90;;;;;;5095793;28;20024;-62
2022/03/26 02:55:38;;;;;;;30.20;13.63;;;1.60;99.90;;;;;;5096180;28;20047;-63
2022/03/26 02:58:05;;;;;;;31.85;13.93;;;1.50;99.90;;;;;;5097397;28;20016;-63
2022/03/26 03:00:32;;;;;;;29.95;13.60;;;1.50;99.90;;;;;;5097602;28;20039;-63
2022/03/26 03:02:58;;;;;;;27.15;13.52;;;1.70;99.90;;;;;;5097010;28;20024;-63
2022/03/26 03:05:25;;;;;;;28.27;12.98;;;1.50;99.90;;;;;;5097253;28;20464;-63
2022/03/26 03:07:51;;;;;;;33.30;12.85;;;1.40;99.90;;;;;;5097477;28;20051;-63
2022/03/26 03:10:17;;;;;;;30.88;14.30;;;1.40;99.90;;;;;;5095959;28;20464;-63
2022/03/26 03:12:44;;;;;;;26.23;14.10;;;1.40;99.90;;;;;;5096879;28;20575;-63
2022/03/26 03:15:11;;;;;;;27.95;13.23;;;1.50;99.90;;;;;;5097060;28;20082;-63
2022/03/26 03:17:41;;;;;;;27.80;13.43;;;1.40;99.90;;;;;;5096791;28;20102;-63
2022/03/26 03:20:10;;;;;;;29.77;13.93;;;1.40;99.90;;;;;;5096983;28;20075;-63
2022/03/26 03:25:22;;;;;;;31.92;12.38;;;1.40;99.90;;;;;;5096751;28;20066;-63
2022/03/26 03:27:47;;;;;;;24.73;11.95;;;1.30;99.90;;;;;;5096872;28;20073;-63
2022/03/26 03:30:13;;;;;;;31.90;13.50;;;1.30;99.90;;;;;;5096778;28;20365;-63
2022/03/26 03:32:39;;;;;;;29.70;13.18;;;1.30;99.90;;;;;;5096747;28;20042;-63
2022/03/26 03:35:05;;;;;;;27.42;12.80;;;1.30;99.90;;;;;;5096657;28;20039;-63
2022/03/26 03:37:35;;;;;;;34.53;13.73;;;1.20;99.90;;;;;;5095354;28;20032;-63
2022/03/26 03:40:01;;;;;;;30.45;13.23;;;1.20;99.90;;;;;;5095106;28;20115;-63
2022/03/26 03:42:27;;;;;;;37.55;12.82;;;1.20;99.90;;;;;;5095710;28;20115;-63
2022/03/26 03:44:52;;;;;;;36.85;13.40;;;1.10;99.90;;;;;;5096218;28;20024;-63
2022/03/26 03:47:18;;;;;;;32.22;12.60;;;1.20;99.90;;;;;;5095157;28;20020;-63
2022/03/26 03:49:44;;;;;;;31.02;13.35;;;1.00;99.90;;;;;;5095264;28;20020;-63
2022/03/26 03:52:09;;;;;;;27.17;12.60;;;1.00;99.90;;;;;;5095635;28;20598;-63
2022/03/26 03:54:35;;;;;;;31.60;13.95;;;1.00;99.90;;;;;;5111876;28;20035;-63
2022/03/26 03:57:00;;;;;;;29.90;12.35;;;1.00;99.90;;;;;;5096621;28;20024;-63
2022/03/26 03:59:26;;;;;;;27.55;13.07;;;1.20;99.90;;;;;;5096190;28;20020;-63
2022/03/26 04:01:52;;;;;;;30.65;13.13;;;0.90;99.90;;;;;;5096191;28;20406;-63
2022/03/26 04:04:17;;;;;;;28.70;13.88;;;1.20;99.90;;;;;;5095866;28;20422;-63
2022/03/26 04:06:43;;;;;;;26.60;13.48;;;0.80;99.90;;;;;;5096029;28;20028;-63
2022/03/26 04:09:09;;;;;;;25.60;13.15;;;0.90;99.90;;;;;;5096085;28;20024;-63
2022/03/26 04:11:34;;;;;;;31.80;13.25;;;0.80;99.90;;;;;;5095694;28;20074;-63
2022/03/26 04:14:00;;;;;;;29.52;12.80;;;0.80;99.90;;;;;;5095986;28;20047;-63
2022/03/26 04:16:26;;;;;;;28.77;13.73;;;0.80;99.90;;;;;;5095206;28;20156;-63
2022/03/26 04:18:51;;;;;;;28.95;12.57;;;0.80;99.90;;;;;;5095819;28;20020;-63
2022/03/26 04:21:17;;;;;;;30.85;13.90;;;0.80;99.90;;;;;;5095750;28;20050;-63
2022/03/26 04:23:43;;;;;;;29.30;12.60;;;0.70;99.90;;;;;;5095737;28;20031;-63
2022/03/26 04:26:09;;;;;;;27.98;13.25;;;0.70;99.90;;;;;;5095809;28;20028;-63
2022/03/26 04:28:35;;;;;;;31.80;13.27;;;0.70;99.90;;;;;;5094364;28;20492;-63
2022/03/26 04:31:01;;;;;;;25.98;12.98;;;0.70;99.90;;;;;;5095343;28;20028;-63
2022/03/26 04:33:27;;;;;;;30.55;13.30;;;0.70;99.90;;;;;;5094151;28;20511;-63
2022/03/26 04:35:53;;;;;;;33.92;14.50;;;0.70;99.90;;;;;;5096030;28;20146;-63
2022/03/26 04:38:19;;;;;;;35.53;14.20;;;0.80;99.90;;;;;;5095199;28;20353;-63
2022/03/26 04:40:45;;;;;;;27.42;13.30;;;1.00;99.90;;;;;;5095058;28;20027;-63
2022/03/26 04:43:11;;;;;;;33.22;14.65;;;2.30;99.90;;;;;;5094099;28;20030;-63
2022/03/26 04:45:37;;;;;;;29.23;13.15;;;0.70;99.90;;;;;;5095874;28;20024;-63
2022/03/26 04:48:03;;;;;;;35.03;13.15;;;0.70;99.90;;;;;;5093951;28;20024;-63
2022/03/26 04:50:28;;;;;;;28.50;13.80;;;0.70;99.90;;;;;;5095237;28;20020;-63
2022/03/26 04:52:54;;;;;;;26.45;12.65;;;0.70;99.90;;;;;;5093845;28;20036;-62
2022/03/26 04:55:20;;;;;;;31.13;13.60;;;0.70;99.90;;;;;;5095151;28;20075;-63
2022/03/26 04:57:48;;;;;;;31.40;13.93;;;0.60;99.90;;;;;;5093950;28;20119;-63
2022/03/26 05:00:15;;;;;;;34.75;15.02;;;0.60;99.90;;;;;;5095051;28;20023;-63
2022/03/26 05:02:41;;;;;;;33.72;13.48;;;0.60;99.90;;;;;;5093661;28;20047;-63
2022/03/26 05:05:09;;;;;;;34.80;14.13;;;0.70;99.90;;;;;;5094358;28;20448;-63
2022/03/26 05:07:47;;;;;;;28.63;13.15;;;0.60;99.90;;;;;;5094078;28;20031;-63
2022/03/26 05:10:18;;;;;;;32.88;14.75;;;0.80;99.90;;;;;;5093386;28;20027;-63
2022/03/26 05:12:46;;;;;;;34.50;14.07;;;0.70;99.90;;;;;;5094621;28;20034;-64
2022/03/26 05:15:13;;;;;;;25.42;13.02;;;0.70;99.90;;;;;;5095249;28;20138;-64
2022/03/26 05:17:39;;;;;;;34.97;14.43;;;1.00;99.90;;;;;;5094019;28;20460;-65
2022/03/26 05:20:05;;;;;;;31.10;14.50;;;0.80;99.90;;;;;;5095564;28;20039;-65
2022/03/26 05:22:31;;;;;;;33.92;13.25;;;0.80;99.90;;;;;;5094973;28;20036;-64
2022/03/26 05:24:57;;;;;;;28.92;13.02;;;0.80;99.90;;;;;;5094040;28;20139;-63
2022/03/26 05:27:23;;;;;;;31.23;13.15;;;0.80;99.90;;;;;;5094482;28;20387;-63
2022/03/26 05:29:49;;;;;;;27.55;13.07;;;0.80;99.90;;;;;;5094809;28;20020;-63
2022/03/26 05:32:18;;;;;;;31.92;14.20;;;0.90;99.90;;;;;;5094432;28;20452;-63
2022/03/26 05:34:44;;;;;;;32.20;14.48;;;0.90;99.90;;;;;;5093073;28;20039;-63
2022/03/26 05:37:11;;;;;;;36.28;14.63;;;0.90;99.90;;;;;;5094111;28;20494;-63
2022/03/26 05:39:37;;;;;;;28.65;14.60;;;1.00;99.90;;;;;;5094393;28;20099;-64
2022/03/26 05:42:03;;;;;;;33.17;14.70;;;1.00;99.90;;;;;;5094578;28;20063;-63
2022/03/26 05:44:28;;;;;;;42.58;16.80;;;1.10;99.90;;;;;;5093999;28;20028;-63
2022/03/26 05:46:54;;;;;;;29.23;14.00;;;1.20;99.90;;;;;;5110033;28;20463;-63
2022/03/26 05:49:21;;;;;;;31.95;15.00;;;1.40;99.90;;;;;;5093933;28;20560;-61
2022/03/26 05:51:47;;;;;;;31.50;14.35;;;1.60;99.90;;;;;;5094257;28;20024;-63
2022/03/26 05:54:13;;;;;;;33.60;13.82;;;1.90;99.90;;;;;;5092740;28;20032;-63
2022/03/26 05:56:39;;;;;;;39.42;15.43;;;2.10;99.90;;;;;;5094646;28;20031;-63
2022/03/26 05:59:11;;;;;;;34.42;15.43;;;2.30;99.90;;;;;;5093335;28;20472;-63
2022/03/26 06:01:37;;;;;;;30.80;14.68;;;2.60;99.90;;;;;;5093723;28;20024;-63
2022/03/26 06:07:24;;;;;;;32.75;15.00;;;3.00;99.90;;;;;;5094164;28;20026;-64
2022/03/26 06:09:50;;;;;;;32.13;14.70;;;3.20;99.90;;;;;;5093967;28;20110;-64
2022/03/26 06:12:16;;;;;;;34.03;15.90;;;3.40;99.90;;;;;;5093909;28;20026;-63
2022/03/26 06:14:42;;;;;;;34.30;15.43;;;3.70;99.90;;;;;;5093476;28;20040;-64
2022/03/26 06:17:08;;;;;;;35.80;16.13;;;3.90;99.90;;;;;;5099662;28;20051;-63
2022/03/26 06:19:33;;;;;;;40.38;14.98;;;4.10;99.90;;;;;;5099443;28;20115;-64
2022/03/26 06:21:59;;;;;;;45.95;16.90;;;4.20;99.90;;;;;;5099360;28;20024;-64
2022/03/26 06:24:25;;;;;;;33.35;15.55;;;4.40;99.90;;;;;;5100587;28;20031;-64
2022/03/26 06:26:51;;;;;;;32.45;16.17;;;4.70;99.90;;;;;;5100542;28;20364;-64
2022/03/26 06:29:17;;;;;;;34.88;16.67;;;5.00;99.90;;;;;;5099648;28;20035;-64
2022/03/26 06:31:43;;;;;;;33.55;15.88;;;5.30;99.90;;;;;;5116244;28;20072;-63
2022/03/26 06:34:08;;;;;;;36.50;16.55;;;5.60;99.90;;;;;;5100251;28;20032;-63
2022/03/26 06:36:34;;;;;;;37.05;16.73;;;5.80;99.90;;;;;;5100729;28;20040;-63
2022/03/26 06:39:02;;;;;;;33.88;16.88;;;6.10;99.90;;;;;;5100397;28;20030;-63
2022/03/26 06:41:28;;;;;;;36.00;16.02;;;6.40;99.90;;;;;;5099414;28;20451;-63
2022/03/26 06:43:53;;;;;;;31.02;15.73;;;6.70;99.90;;;;;;5100531;28;20052;-63
2022/03/26 06:46:19;;;;;;;30.88;15.75;;;7.00;99.90;;;;;;5100364;28;20024;-63
2022/03/26 06:48:44;;;;;;;34.08;16.27;;;7.30;99.90;;;;;;5100407;28;20028;-64
2022/03/26 06:51:10;;;;;;;35.10;16.13;;;7.60;99.90;;;;;;5100529;28;20107;-63
2022/03/26 06:53:36;;;;;;;33.55;16.70;;;7.90;99.80;;;;;;5100238;28;20047;-63
2022/03/26 06:56:05;;;;;;;31.40;16.80;;;8.20;99.20;;;;;;5098962;28;20053;-64
2022/03/26 06:58:31;;;;;;;38.15;17.15;;;8.50;98.70;;;;;;5100268;28;20111;-63
2022/03/26 07:00:58;;;;;;;33.58;17.45;;;8.80;97.70;;;;;;5115644;28;20166;-64
2022/03/26 07:03:24;;;;;;;31.80;17.17;;;9.10;96.40;;;;;;5098927;28;20532;-63
2022/03/26 07:05:50;;;;;;;29.80;16.52;;;9.40;96.00;;;;;;5100205;28;20183;-63
2022/03/26 07:08:16;;;;;;;32.40;17.17;;;9.60;95.00;;;;;;5098940;28;20024;-63
2022/03/26 07:10:45;;;;;;;33.67;17.55;;;9.90;94.20;;;;;;5100404;28;20035;-63
2022/03/26 07:13:11;;;;;;;32.90;17.50;;;10.30;93.00;;;;;;5099833;28;20044;-64
2022/03/26 07:15:36;;;;;;;37.30;18.33;;;10.70;91.60;;;;;;5100416;28;20032;-64
2022/03/26 07:18:02;;;;;;;33.17;17.45;;;11.10;88.70;;;;;;5098630;28;20437;-64
2022/03/26 07:20:28;;;;;;;37.42;18.73;;;11.40;85.70;;;;;;5100524;28;20051;-63
2022/03/26 07:22:54;;;;;;;39.88;19.17;;;11.70;76.40;;;;;;5098764;28;20375;-65
2022/03/26 07:25:19;;;;;;;39.75;20.42;;;11.70;73.10;;;;;;5100021;28;20031;-64
2022/03/26 07:27:45;;;;;;;37.58;19.13;;;11.60;70.70;;;;;;5096399;28;20032;-63
2022/03/26 07:30:11;;;;;;;38.15;19.55;;;11.70;70.70;;;;;;5095592;28;20074;-63
2022/03/26 07:32:37;;;;;;;35.55;19.88;;;11.80;67.20;;;;;;5096800;28;20024;-64
2022/03/26 07:35:04;;;;;;;35.67;19.42;;;11.80;67.30;;;;;;5096701;28;20513;-63
2022/03/26 07:37:30;;;;;;;37.33;18.83;;;11.90;67.50;;;;;;5095886;28;20380;-64
2022/03/26 07:39:56;;;;;;;35.53;19.35;;;12.10;66.00;;;;;;5095685;28;20031;-63
2022/03/26 07:42:21;;;;;;;35.22;18.98;;;12.30;64.80;;;;;;5096621;28;20031;-63
2022/03/26 07:44:47;;;;;;;38.17;18.67;;;12.40;63.70;;;;;;5095342;28;20133;-62
2022/03/26 07:47:13;;;;;;;40.10;18.52;;;12.60;64.10;;;;;;5096731;28;20032;-62
2022/03/26 07:49:38;;;;;;;35.10;18.50;;;12.80;62.80;;;;;;5096552;28;20025;-64
2022/03/26 07:52:04;;;;;;;32.38;18.08;;;13.10;61.80;;;;;;5096326;28;20110;-62
2022/03/26 07:54:30;;;;;;;39.00;20.58;;;13.30;59.10;;;;;;5096430;28;20046;-62
2022/03/26 07:56:56;;;;;;;41.00;19.02;;;13.50;58.60;;;;;;5094932;28;20024;-62
2022/03/26 07:59:21;;;;;;;38.33;17.98;;;13.70;56.80;;;;;;5096229;28;20016;-62
2022/03/26 08:01:47;;;;;;;39.22;20.27;;;13.80;56.30;;;;;;5111880;28;20451;-62
2022/03/26 08:04:13;;;;;;;35.28;19.02;;;13.90;54.60;;;;;;5094778;28;20035;-62
2022/03/26 08:06:38;;;;;;;34.10;19.65;;;14.00;54.70;;;;;;5094849;28;20376;-63
2022/03/26 08:09:05;;;;;;;38.67;18.00;;;14.20;53.00;;;;;;5095815;28;20456;-63
2022/03/26 08:11:31;;;;;;;37.58;17.63;;;14.30;52.70;;;;;;5095886;28;20478;-63
2022/03/26 08:13:56;;;;;;;40.00;19.75;;;14.70;51.30;;;;;;5095351;28;20048;-63
2022/03/26 08:16:22;;;;;;;39.78;20.10;;;14.90;50.00;;;;;;5096107;28;20093;-63
2022/03/26 08:18:48;;;;;;;34.05;17.95;;;15.00;49.60;;;;;;5095918;28;20030;-64
2022/03/26 08:24:35;;;;;;;36.03;19.23;;;15.30;47.10;;;;;;5095652;28;20063;-64
2022/03/26 08:27:01;;;;;;;36.15;19.00;;;15.50;46.00;;;;;;5094371;28;20051;-65
2022/03/26 08:29:28;;;;;;;33.33;18.77;;;15.70;45.90;;;;;;5111547;28;20028;-64
2022/03/26 08:31:54;;;;;;;31.42;18.23;;;15.80;45.40;;;;;;5095503;28;20020;-65
2022/03/26 08:34:20;;;;;;;37.50;18.75;;;15.90;44.90;;;;;;5094167;28;20032;-63
2022/03/26 08:36:46;;;;;;;33.53;18.48;;;16.00;44.30;;;;;;5095359;28;20024;-63
2022/03/26 08:39:12;;;;;;;36.08;18.27;;;16.20;44.20;;;;;;5094228;28;20031;-63
2022/03/26 08:41:37;;;;;;;37.33;19.65;;;16.30;43.80;;;;;;5095363;28;20024;-63
2022/03/26 08:44:03;;;;;;;35.50;18.27;;;16.20;43.80;;;;;;5095567;28;20131;-64
2022/03/26 08:46:29;;;;;;;34.95;19.17;;;16.40;43.40;;;;;;5094690;28;20396;-64
2022/03/26 08:48:56;;;;;;;34.75;19.60;;;16.70;42.40;;;;;;5093921;28;20020;-64
2022/03/26 08:51:21;;;;;;;36.20;18.17;;;16.70;42.00;;;;;;5095128;28;20024;-64
2022/03/26 08:53:47;;;;;;;37.05;18.23;;;16.60;41.60;;;;;;5094945;28;20036;-64
2022/03/26 08:56:13;;;;;;;32.08;17.58;;;16.90;41.50;;;;;;5094992;28;20455;-64
2022/03/26 08:58:38;;;;;;;34.75;17.20;;;17.00;41.10;;;;;;5095015;28;20444;-64
2022/03/26 09:01:07;;;;;;;34.90;18.42;;;17.20;41.10;;;;;;5110610;28;20024;-64
2022/03/26 09:03:52;;;;;;;32.45;18.40;;;17.50;40.20;;;;;;5093947;28;20028;-64
2022/03/26 09:06:17;;;;;;;34.25;18.67;;;17.40;39.40;;;;;;5094892;28;20122;-64
2022/03/26 09:08:43;;;;;;;35.13;18.65;;;17.50;39.60;;;;;;5094824;28;20494;-64
2022/03/26 09:11:09;;;;;;;30.65;19.65;;;17.60;39.60;;;;;;5093310;28;20119;-64
2022/03/26 09:13:35;;;;;;;33.60;20.42;;;17.90;39.80;;;;;;5094452;28;20044;-64
2022/03/26 09:16:00;;;;;;;34.33;18.35;;;18.10;39.00;;;;;;5094668;28;20121;-65
2022/03/26 09:18:27;;;;;;;32.75;19.98;;;18.40;37.90;;;;;;5093318;28;20031;-65
2022/03/26 09:20:53;;;;;;;32.10;19.13;;;18.50;37.80;;;;;;5110331;28;20048;-64
2022/03/26 09:23:19;;;;;;;34.95;18.63;;;18.60;37.40;;;;;;5094550;28;20024;-64
2022/03/26 09:25:45;;;;;;;33.58;19.17;;;18.90;37.10;;;;;;5094460;28;20101;-64
2022/03/26 09:28:10;;;;;;;33.95;20.05;;;19.20;36.80;;;;;;5094082;28;20032;-64
2022/03/26 09:30:36;;;;;;;31.85;18.63;;;19.50;36.10;;;;;;5110213;28;20434;-64
2022/03/26 09:33:03;;;;;;;27.92;18.10;;;19.80;34.90;;;;;;5094592;28;20020;-64
2022/03/26 09:35:28;;;;;;;32.80;18.95;;;19.90;34.30;;;;;;5094338;28;20148;-65
2022/03/26 09:37:55;;;;;;;31.92;19.20;;;20.10;34.00;;;;;;5092998;28;20024;-64
2022/03/26 09:40:22;;;;;;;29.90;18.38;;;20.10;34.30;;;;;;5094245;28;20123;-65
2022/03/26 09:42:49;;;;;;;32.55;18.50;;;20.40;33.50;;;;;;5094264;28;20028;-65
2022/03/26 09:45:16;;;;;;;29.80;18.77;;;20.30;33.60;;;;;;5094052;28;20537;-65
2022/03/26 09:47:42;;;;;;;30.30;18.10;;;20.20;33.90;;;;;;5094360;28;20032;-65
2022/03/26 09:50:09;;;;;;;38.15;18.65;;;20.20;33.90;;;;;;5093417;28;20058;-65
2022/03/26 09:52:36;;;;;;;30.17;18.70;;;20.20;34.40;;;;;;5092784;28;20058;-64
2022/03/26 09:55:04;;;;;;;29.13;18.20;;;20.40;33.40;;;;;;5093974;28;20027;-64
2022/03/26 09:57:30;;;;;;;27.75;17.65;;;20.30;33.50;;;;;;5093943;28;20054;-65
2022/03/26 09:59:57;;;;;;;30.48;16.92;;;20.60;33.40;;;;;;5093945;28;20476;-65
2022/03/26 10:02:24;;;;;;;31.58;18.27;;;20.80;33.60;;;;;;5094041;28;20411;-64
2022/03/26 10:08:22;;;;;;;25.83;17.60;;;21.80;32.20;;;;;;5093992;28;20065;-65
2022/03/26 10:10:50;;;;;;;27.95;17.40;;;21.40;32.00;;;;;;5093766;28;20490;-65
2022/03/26 10:13:43;;;;;;;29.45;18.45;;;21.30;32.00;;;;;;5092139;28;20054;-65
2022/03/26 10:16:13;;;;;;;29.77;18.88;;;21.30;32.20;;;;;;5093788;28;20032;-65
2022/03/26 10:18:46;;;;;;;25.67;17.40;;;21.50;31.30;;;;;;5092585;28;20115;-64
2022/03/26 10:21:18;;;;;;;29.73;17.52;;;21.50;30.80;;;;;;5093829;28;20028;-64
2022/03/26 10:23:48;;;;;;;28.05;18.13;;;21.80;30.80;;;;;;5093422;28;20036;-64
2022/03/26 10:26:22;;;;;;;28.60;18.30;;;22.10;30.00;;;;;;5093807;28;20028;-64
2022/03/26 10:28:55;;;;;;;29.88;18.00;;;21.90;30.30;;;;;;5094066;28;20028;-64
2022/03/26 10:37:44;;;;;;;25.77;16.08;;;22.00;30.20;;;;;;5093737;28;20027;-64
2022/03/26 10:40:20;;;;;;;29.70;18.25;;;22.70;29.50;;;;;;5093746;28;20130;-64
2022/03/26 10:42:52;;;;;;;29.25;17.55;;;22.90;28.70;;;;;;5092851;28;20402;-65
2022/03/26 10:45:18;;;;;;;29.23;16.92;;;22.90;28.50;;;;;;5093552;28;20111;-64
2022/03/26 10:47:44;;;;;;;30.73;17.27;;;23.40;28.20;;;;;;5093443;28;20052;-64
2022/03/26 10:50:14;;;;;;;25.13;18.45;;;24.10;27.80;;;;;;5109184;28;20024;-64
2022/03/26 10:52:40;;;;;;;24.60;16.30;;;24.30;27.50;;;;;;5093785;28;20020;-64
2022/03/26 10:55:13;;;;;;;29.88;17.88;;;23.90;28.20;;;;;;5093115;28;20119;-64
2022/03/26 10:57:40;;;;;;;25.83;17.27;;;24.00;28.00;;;;;;5092841;28;20034;-64
2022/03/26 11:00:06;;;;;;;30.55;17.27;;;24.10;28.00;;;;;;5092027;28;20435;-65
2022/03/26 11:02:32;;;;;;;27.90;18.00;;;24.50;27.30;;;;;;5093998;28;20028;-64
2022/03/26 11:04:59;;;;;;;26.10;16.75;;;25.10;27.10;;;;;;5096080;28;20039;-64
2022/03/26 11:07:26;;;;;;;27.05;17.45;;;25.60;26.80;;;;;;5097496;28;20027;-62
2022/03/26 11:09:54;;;;;;;26.38;18.17;;;26.00;26.50;;;;;;5096343;28;20051;-62
2022/03/26 11:12:21;;;;;;;26.50;17.35;;;26.00;26.40;;;;;;5099352;28;20020;-62
2022/03/26 11:14:48;;;;;;;28.52;17.48;;;26.00;25.90;;;;;;5099467;28;20043;-65
2022/03/26 11:17:38;;;;;;;28.98;16.73;;;25.70;26.20;;;;;;5100681;28;20391;-64
2022/03/26 11:20:18;;;;;;;24.30;16.65;;;26.20;25.90;;;;;;5099822;28;20034;-69
2022/03/26 11:23:10;;;;;;;27.45;17.65;;;26.00;25.90;;;;;;5098883;28;20035;-63
2022/03/26 11:26:08;;;;;;;27.58;17.60;;;26.70;26.10;;;;;;5098056;28;20032;-62
2022/03/26 11:28:36;;;;;;;27.67;17.30;;;26.90;25.40;;;;;;5097448;28;20032;-62
2022/03/26 11:31:18;;;;;;;29.60;17.45;;;26.70;25.20;;;;;;5097222;28;20031;-64
2022/03/26 11:33:48;;;;;;;24.70;17.33;;;25.70;25.80;;;;;;5096870;28;20072;-62
2022/03/26 11:36:17;;;;;;;23.85;17.13;;;26.20;25.40;;;;;;5096806;28;20020;-62
2022/03/26 11:38:54;;;;;;;25.17;17.80;;;26.40;25.60;;;;;;5096842;28;20047;-64
2022/03/26 11:41:31;;;;;;;27.35;17.38;;;26.70;25.60;;;;;;5096615;28;20043;-57
2022/03/26 11:43:58;;;;;;;23.98;17.17;;;26.90;25.50;;;;;;5096577;28;20032;-57
2022/03/26 11:52:33;;;;;;;30.88;18.13;;;26.60;25.80;;;;;;5079915;28;20067;-55
2022/03/26 11:55:24;;;;;;;28.40;18.35;;;26.60;25.90;;;;;;5096452;28;20442;-57
2022/03/26 11:58:12;;;;;;;30.00;17.98;;;25.90;25.80;;;;;;5096300;28;20084;-57
2022/03/26 12:01:02;;;;;;;31.38;18.75;;;25.50;26.60;;;;;;5096538;28;20140;-57
2022/03/26 12:03:30;;;;;;;27.40;18.13;;;24.80;26.80;;;;;;5096245;28;20024;-56
2022/03/26 12:08:55;;;;;;;29.27;17.53;;;24.80;26.50;;;;;;5096260;28;19930;-57
2022/03/26 12:11:25;;;;;;;25.42;17.52;;;25.20;26.40;;;;;;5095969;28;20111;-64
2022/03/26 12:14:06;;;;;;;26.92;18.42;;;25.20;26.00;;;;;;5095298;28;20119;-64
2022/03/26 12:16:49;;;;;;;29.35;18.00;;;25.10;26.00;;;;;;5096433;28;20345;-65
2022/03/26 12:22:32;;;;;;;26.65;16.27;;;25.50;25.60;;;;;;5095493;28;20059;-65
2022/03/26 12:25:03;;;;;;;25.05;16.15;;;25.60;25.40;;;;;;5095771;28;20126;-65
2022/03/26 12:27:29;;;;;;;26.58;17.33;;;25.80;24.60;;;;;;5094539;28;20483;-63
2022/03/26 12:29:57;;;;;;;27.55;17.95;;;26.20;24.60;;;;;;5095467;28;20367;-65
2022/03/26 12:32:30;;;;;;;25.17;17.03;;;26.00;24.50;;;;;;5094030;28;20034;-64
2022/03/26 12:35:05;;;;;;;30.33;16.73;;;25.50;24.50;;;;;;5095710;28;20032;-65
2022/03/26 12:37:32;;;;;;;28.00;16.42;;;24.40;24.90;;;;;;5095631;28;20051;-64
2022/03/26 12:39:58;;;;;;;22.70;15.80;;;24.10;25.60;;;;;;5095348;28;20039;-65
2022/03/26 12:42:25;;;;;;;25.73;16.35;;;24.50;25.20;;;;;;5094226;28;20061;-66
2022/03/26 12:44:52;;;;;;;24.40;15.80;;;24.60;25.00;;;;;;5094148;28;20115;-65
2022/03/26 12:47:19;;;;;;;24.40;14.85;;;24.60;25.20;;;;;;5095264;28;20032;-65
2022/03/26 12:49:47;;;;;;;25.45;14.80;;;25.30;25.00;;;;;;5093841;28;20028;-65
2022/03/26 12:52:16;;;;;;;25.02;15.45;;;25.90;24.50;;;;;;5095254;28;20059;-65
2022/03/26 12:54:42;;;;;;;25.42;15.18;;;26.10;24.50;;;;;;5093622;28;20036;-65
2022/03/26 12:57:08;;;;;;;30.05;15.73;;;26.70;24.20;;;;;;5095120;28;20024;-65
2022/03/26 12:59:34;;;;;;;23.55;16.63;;;27.30;24.00;;;;;;5094899;28;20031;-65
2022/03/26 13:02:00;;;;;;;24.90;15.88;;;26.70;23.80;;;;;;5095561;28;20052;-65
2022/03/26 13:04:27;;;;;;;27.52;15.35;;;26.30;23.90;;;;;;5094922;28;20024;-66
2022/03/26 13:06:59;;;;;;;27.48;15.65;;;25.40;24.20;;;;;;5094859;28;20024;-66